Time;durP1;ratioP1;P1;durP2;ratioP2;P2;SDS_P1;SDS_P2;PMS_P1;PMS_P2;Temp;Humidity;BMP_temperature;BMP_pressure;BME280_temperature;BME280_humidity;BME280_pressure;Samples;Min_cycle;Max_cycle;Signal;HPM_P1;HPM_P2
2023/02/09 00:01:54;;;;;;;1.17;0.73;;;24.80;42.90;;;;;;5011476;28;20227;-48
2023/02/09 00:04:25;;;;;;;1.77;0.52;;;24.90;43.00;;;;;;5011717;28;20197;-49
2023/02/09 00:06:56;;;;;;;0.77;0.55;;;24.80;43.00;;;;;;5011601;28;20196;-51
2023/02/09 00:09:29;;;;;;;1.38;0.80;;;24.90;43.00;;;;;;5010961;28;20217;-52
2023/02/09 00:14:46;;;;;;;2.10;0.50;;;24.90;43.00;;;;;;4992266;28;20619;-51
2023/02/09 00:17:17;;;;;;;1.40;0.73;;;24.90;43.00;;;;;;4994943;28;20748;-53
2023/02/09 00:19:47;;;;;;;0.98;0.60;;;24.90;43.00;;;;;;5010882;28;20224;-51
2023/02/09 00:22:18;;;;;;;1.90;0.65;;;25.00;43.00;;;;;;5011323;28;20320;-52
2023/02/09 00:24:50;;;;;;;2.42;0.98;;;25.00;43.00;;;;;;5010802;28;20555;-49
2023/02/09 00:27:21;;;;;;;2.78;0.70;;;25.00;42.90;;;;;;5010955;28;20212;-52
2023/02/09 00:29:52;;;;;;;1.90;0.60;;;25.00;42.90;;;;;;5010683;28;20217;-50
2023/02/09 00:32:23;;;;;;;1.75;0.57;;;25.00;42.90;;;;;;5010761;28;20571;-48
2023/02/09 00:34:53;;;;;;;0.98;0.68;;;25.10;42.90;;;;;;5011555;28;20196;-52
2023/02/09 00:37:24;;;;;;;1.48;0.82;;;25.10;42.90;;;;;;5011298;28;20205;-49
2023/02/09 00:39:56;;;;;;;2.25;0.70;;;25.10;42.80;;;;;;5011313;28;20217;-51
2023/02/09 00:42:27;;;;;;;1.20;0.60;;;25.10;42.80;;;;;;5010659;28;20233;-54
2023/02/09 00:44:58;;;;;;;1.15;0.60;;;25.10;42.80;;;;;;5011194;28;20732;-53
2023/02/09 00:47:29;;;;;;;1.67;0.50;;;25.20;42.90;;;;;;5011227;28;20200;-48
2023/02/09 00:49:59;;;;;;;1.27;0.55;;;25.10;42.80;;;;;;5008791;28;20594;-52
2023/02/09 00:52:30;;;;;;;1.67;0.50;;;25.20;42.90;;;;;;5010140;28;20204;-51
2023/02/09 00:55:02;;;;;;;1.02;0.60;;;25.20;42.80;;;;;;5010484;28;20574;-52
2023/02/09 00:57:34;;;;;;;2.30;0.68;;;25.20;42.90;;;;;;5008900;28;20192;-51
2023/02/09 01:00:05;;;;;;;3.28;0.88;;;25.20;42.80;;;;;;5010936;28;20224;-50
2023/02/09 01:02:36;;;;;;;1.75;0.80;;;25.30;42.90;;;;;;5011044;28;20220;-51
2023/02/09 01:05:07;;;;;;;2.25;0.90;;;25.30;42.90;;;;;;4996486;28;20205;-49
2023/02/09 01:07:38;;;;;;;2.30;0.77;;;25.30;42.90;;;;;;5002307;28;20200;-52
2023/02/09 01:10:12;;;;;;;2.45;0.77;;;25.30;42.80;;;;;;5014504;28;20217;-48
2023/02/09 01:12:43;;;;;;;1.20;0.90;;;25.30;42.80;;;;;;5014265;28;20699;-51
2023/02/09 01:15:15;;;;;;;2.75;0.80;;;25.30;42.80;;;;;;5014518;28;20695;-51
2023/02/09 01:17:45;;;;;;;2.50;0.90;;;25.30;42.80;;;;;;4997110;28;20657;-49
2023/02/09 01:20:16;;;;;;;2.03;0.90;;;25.30;42.80;;;;;;4994801;28;20229;-48
2023/02/09 01:22:47;;;;;;;3.03;1.00;;;25.40;42.80;;;;;;5008819;28;20224;-50
2023/02/09 01:25:20;;;;;;;1.77;0.60;;;25.40;42.80;;;;;;4996925;28;20208;-53
2023/02/09 01:27:50;;;;;;;2.13;0.80;;;25.40;42.80;;;;;;4994755;28;20202;-51
2023/02/09 01:30:21;;;;;;;2.33;0.85;;;25.40;42.80;;;;;;4994646;28;20218;-49
2023/02/09 01:32:52;;;;;;;1.70;0.70;;;25.40;42.80;;;;;;4997523;28;20193;-50
2023/02/09 01:35:22;;;;;;;1.45;0.57;;;25.40;42.80;;;;;;5013795;28;20216;-51
2023/02/09 01:37:53;;;;;;;1.40;0.70;;;25.40;42.80;;;;;;5013770;28;20200;-50
2023/02/09 01:40:26;;;;;;;1.83;0.75;;;25.50;42.90;;;;;;5013583;28;20217;-48
2023/02/09 01:42:56;;;;;;;2.33;1.00;;;25.50;42.80;;;;;;5013737;28;20228;-51
2023/02/09 01:45:34;;;;;;;2.25;0.73;;;25.50;42.80;;;;;;4997046;28;20205;-51
2023/02/09 01:48:06;;;;;;;2.42;0.90;;;25.50;42.80;;;;;;4994266;28;20202;-48
2023/02/09 01:50:40;;;;;;;1.20;0.70;;;25.50;42.70;;;;;;5003616;28;20216;-48
2023/02/09 01:53:11;;;;;;;3.38;1.00;;;25.50;42.70;;;;;;5010055;28;20387;-49
2023/02/09 01:55:51;;;;;;;2.95;0.80;;;25.50;42.60;;;;;;5002845;28;20216;-48
2023/02/09 01:58:24;;;;;;;1.70;0.90;;;25.50;42.60;;;;;;5013519;28;20702;-50
2023/02/09 02:00:55;;;;;;;3.33;0.98;;;25.60;42.60;;;;;;5013725;28;20197;-52
2023/02/09 02:03:27;;;;;;;2.03;0.90;;;25.60;42.50;;;;;;5013222;28;20220;-50
2023/02/09 02:06:01;;;;;;;1.45;0.50;;;25.60;42.50;;;;;;5013082;28;20207;-49
2023/02/09 02:08:41;;;;;;;2.05;0.90;;;25.60;42.50;;;;;;5012766;28;20235;-50
2023/02/09 02:11:14;;;;;;;3.25;1.00;;;25.60;42.50;;;;;;5012381;28;20212;-48
2023/02/09 02:13:45;;;;;;;4.18;0.80;;;25.60;42.50;;;;;;5012803;28;20208;-52
2023/02/09 02:16:40;;;;;;;1.98;0.80;;;25.60;42.50;;;;;;5012093;28;20224;-52
2023/02/09 02:19:37;;;;;;;2.30;0.90;;;25.60;42.50;;;;;;5009746;28;20232;-52
2023/02/09 02:22:42;;;;;;;3.08;0.80;;;25.70;43.10;;;;;;5013362;28;20221;-50
2023/02/09 02:25:37;;;;;;;3.00;0.93;;;25.70;42.50;;;;;;5003575;28;20212;-52
2023/02/09 02:28:36;;;;;;;2.08;0.82;;;25.70;42.40;;;;;;5012922;28;20577;-51
2023/02/09 02:31:34;;;;;;;2.67;1.05;;;25.70;43.00;;;;;;5010438;28;20206;-50
2023/02/09 02:34:11;;;;;;;3.72;1.08;;;25.70;42.30;;;;;;4946056;28;20234;-50
2023/02/09 02:36:46;;;;;;;4.18;1.00;;;25.80;42.30;;;;;;4993314;28;20205;-49
2023/02/09 02:39:24;;;;;;;2.05;0.90;;;25.80;42.20;;;;;;4993392;28;20217;-50
2023/02/09 02:44:53;;;;;;;2.80;1.05;;;25.80;42.20;;;;;;4995485;28;20657;-50
2023/02/09 02:47:26;;;;;;;2.72;0.98;;;25.80;42.10;;;;;;4993021;28;20208;-49
2023/02/09 02:50:03;;;;;;;1.33;0.57;;;25.80;42.20;;;;;;4993144;28;20218;-49
2023/02/09 02:52:33;;;;;;;1.88;0.80;;;25.80;42.20;;;;;;4998212;28;20208;-51
2023/02/09 02:55:09;;;;;;;2.63;0.90;;;25.80;42.20;;;;;;5012383;28;20204;-49
2023/02/09 02:57:44;;;;;;;3.25;1.13;;;25.80;42.20;;;;;;5009135;28;20200;-56
2023/02/09 03:00:18;;;;;;;2.60;1.00;;;25.80;42.20;;;;;;4993487;28;20221;-51
2023/02/09 03:02:54;;;;;;;1.85;0.80;;;25.80;42.20;;;;;;4992913;28;20232;-49
2023/02/09 03:05:28;;;;;;;2.72;0.93;;;25.80;42.20;;;;;;4992630;28;20201;-51
2023/02/09 03:07:58;;;;;;;2.40;0.93;;;25.90;42.20;;;;;;5002735;28;20589;-49
2023/02/09 03:10:33;;;;;;;2.15;0.80;;;25.90;42.10;;;;;;5011855;28;20216;-48
2023/02/09 03:13:14;;;;;;;3.13;1.00;;;25.90;42.10;;;;;;5011358;28;20235;-49
2023/02/09 03:15:58;;;;;;;2.03;0.52;;;25.90;42.00;;;;;;5012457;28;20193;-48
2023/02/09 03:18:36;;;;;;;2.80;0.88;;;25.90;42.00;;;;;;5012365;28;20683;-48
2023/02/09 03:21:15;;;;;;;3.38;0.90;;;26.00;42.00;;;;;;5011613;28;20209;-53
2023/02/09 03:23:56;;;;;;;2.67;1.00;;;26.00;42.00;;;;;;5011319;28;20696;-48
2023/02/09 03:26:30;;;;;;;2.90;0.80;;;26.00;41.90;;;;;;5000958;28;20205;-48
2023/02/09 03:29:03;;;;;;;3.65;1.05;;;26.00;42.00;;;;;;4991608;28;20220;-48
2023/02/09 03:31:34;;;;;;;1.85;1.00;;;26.00;42.00;;;;;;4992860;28;20676;-49
2023/02/09 03:34:05;;;;;;;3.65;1.10;;;26.10;42.00;;;;;;4994108;28;20197;-48
2023/02/09 03:36:40;;;;;;;1.55;1.00;;;26.10;42.00;;;;;;4993867;28;20193;-49
2023/02/09 03:39:10;;;;;;;2.95;1.10;;;26.10;42.00;;;;;;5011654;28;20216;-51
2023/02/09 03:41:41;;;;;;;2.90;0.85;;;26.10;42.00;;;;;;5004041;28;20671;-49
2023/02/09 03:44:30;;;;;;;2.28;0.80;;;26.10;42.00;;;;;;5009297;28;20224;-52
2023/02/09 03:47:01;;;;;;;2.40;0.90;;;26.10;42.00;;;;;;5011750;28;20223;-51
2023/02/09 03:49:34;;;;;;;3.33;1.00;;;26.20;42.00;;;;;;5011101;28;20220;-51
2023/02/09 03:52:07;;;;;;;2.15;0.90;;;26.20;42.00;;;;;;5011280;28;20254;-50
2023/02/09 03:54:38;;;;;;;3.53;0.80;;;26.20;42.00;;;;;;5011905;28;20197;-51
2023/02/09 03:57:09;;;;;;;4.32;0.90;;;26.20;41.90;;;;;;5011880;28;20207;-53
2023/02/09 03:59:39;;;;;;;1.88;0.85;;;26.20;41.90;;;;;;5011740;28;20658;-53
2023/02/09 04:02:11;;;;;;;4.50;1.05;;;26.30;42.00;;;;;;5011942;28;20197;-52
2023/02/09 04:04:41;;;;;;;2.22;1.13;;;26.30;41.90;;;;;;5011895;28;20665;-52
2023/02/09 04:07:14;;;;;;;2.75;0.90;;;26.30;41.90;;;;;;5011902;28;20213;-54
2023/02/09 04:09:45;;;;;;;1.65;0.80;;;26.30;41.80;;;;;;5011573;28;20224;-52
2023/02/09 04:12:15;;;;;;;2.15;0.77;;;26.30;41.80;;;;;;5011430;28;20679;-48
2023/02/09 04:14:46;;;;;;;2.78;0.95;;;26.30;41.80;;;;;;5012109;28;20543;-49
2023/02/09 04:17:17;;;;;;;2.58;0.90;;;26.30;41.70;;;;;;5011590;28;20197;-52
2023/02/09 04:19:47;;;;;;;2.83;0.85;;;26.30;41.70;;;;;;5011600;28;20220;-49
2023/02/09 04:22:20;;;;;;;2.13;0.85;;;26.30;41.70;;;;;;5011310;28;20199;-48
2023/02/09 04:24:51;;;;;;;1.52;0.70;;;26.30;41.60;;;;;;5011175;28;20201;-51
2023/02/09 04:27:21;;;;;;;3.42;1.10;;;26.30;41.60;;;;;;5011402;28;20215;-50
2023/02/09 04:29:52;;;;;;;2.28;0.80;;;26.30;41.60;;;;;;5011288;28;20213;-53
2023/02/09 04:32:23;;;;;;;2.75;1.00;;;26.30;41.50;;;;;;5011262;28;20200;-49
2023/02/09 04:34:53;;;;;;;2.83;1.08;;;26.30;41.40;;;;;;5011742;28;20200;-48
2023/02/09 04:37:26;;;;;;;3.47;1.00;;;26.30;41.40;;;;;;5008579;28;20189;-51
2023/02/09 04:39:56;;;;;;;1.90;0.95;;;26.30;41.30;;;;;;5013668;28;20225;-48
2023/02/09 04:42:27;;;;;;;3.28;0.90;;;26.30;41.30;;;;;;5015374;28;20211;-51
2023/02/09 04:44:58;;;;;;;1.85;0.90;;;26.30;41.30;;;;;;5015189;28;20204;-51
2023/02/09 04:47:29;;;;;;;2.33;1.00;;;26.30;41.90;;;;;;5015236;28;20562;-48
2023/02/09 04:49:59;;;;;;;1.50;0.65;;;26.30;41.30;;;;;;5014918;28;20221;-48
2023/02/09 04:52:32;;;;;;;5.20;0.93;;;26.20;41.20;;;;;;5015112;28;20565;-49
2023/02/09 04:55:03;;;;;;;2.35;0.90;;;26.20;41.20;;;;;;5014656;28;20201;-52
2023/02/09 05:00:20;;;;;;;2.92;1.10;;;26.20;41.20;;;;;;4995780;28;20576;-49
2023/02/09 05:02:51;;;;;;;1.15;0.70;;;26.20;41.10;;;;;;4995375;28;20214;-53
2023/02/09 05:05:22;;;;;;;2.58;0.88;;;26.20;41.10;;;;;;4995174;28;20205;-50
2023/02/09 05:07:54;;;;;;;2.67;1.00;;;26.20;41.10;;;;;;5004885;28;20554;-51
2023/02/09 05:10:25;;;;;;;1.85;0.88;;;26.20;41.20;;;;;;5014850;28;20217;-51
2023/02/09 05:12:55;;;;;;;2.60;1.00;;;26.10;41.20;;;;;;5014792;28;20201;-51
2023/02/09 05:15:26;;;;;;;3.35;1.08;;;26.10;41.20;;;;;;5014920;28;20216;-52
2023/02/09 05:17:57;;;;;;;2.63;0.80;;;26.10;41.10;;;;;;5014564;28;20197;-52
2023/02/09 05:20:28;;;;;;;2.28;0.90;;;26.10;41.20;;;;;;5013786;28;20224;-48
2023/02/09 05:23:00;;;;;;;2.92;1.20;;;26.10;41.10;;;;;;5014208;28;20226;-50
2023/02/09 05:25:31;;;;;;;2.35;0.90;;;26.10;41.10;;;;;;5014393;28;20196;-48
2023/02/09 05:28:02;;;;;;;1.83;0.82;;;26.10;41.20;;;;;;5014247;28;20205;-48
2023/02/09 05:30:33;;;;;;;2.20;0.80;;;26.10;41.20;;;;;;5014153;28;20224;-50
2023/02/09 05:33:04;;;;;;;1.88;0.70;;;26.00;41.10;;;;;;5014327;28;20197;-49
2023/02/09 05:35:34;;;;;;;2.70;1.05;;;26.00;41.10;;;;;;5014563;28;20204;-48
2023/02/09 05:38:07;;;;;;;2.58;0.82;;;26.00;41.80;;;;;;5013603;28;20198;-47
2023/02/09 05:40:38;;;;;;;1.88;0.88;;;26.00;41.20;;;;;;5012934;28;20200;-47
2023/02/09 05:43:08;;;;;;;2.55;1.00;;;26.00;41.20;;;;;;5013908;28;20232;-47
2023/02/09 05:45:39;;;;;;;1.30;0.80;;;25.90;41.10;;;;;;5014413;28;20223;-49
2023/02/09 05:48:10;;;;;;;3.97;1.08;;;25.90;41.10;;;;;;5014116;28;20541;-50
2023/02/09 05:50:41;;;;;;;2.13;0.60;;;25.90;41.20;;;;;;5013556;28;20201;-47
2023/02/09 05:53:13;;;;;;;3.03;1.08;;;25.90;41.20;;;;;;5013927;28;20208;-49
2023/02/09 05:55:44;;;;;;;1.73;0.82;;;25.90;41.20;;;;;;5013606;28;20197;-47
2023/02/09 05:58:15;;;;;;;1.85;0.80;;;25.90;41.20;;;;;;5013767;28;20208;-47
2023/02/09 06:00:46;;;;;;;1.60;0.70;;;25.90;41.20;;;;;;5013440;28;20197;-49
2023/02/09 06:03:16;;;;;;;2.45;1.00;;;25.80;41.20;;;;;;4996453;28;20222;-50
2023/02/09 06:05:48;;;;;;;2.95;0.88;;;25.80;41.20;;;;;;5003719;28;20197;-48
2023/02/09 06:08:20;;;;;;;1.27;0.70;;;25.80;41.20;;;;;;5012782;28;20223;-48
2023/02/09 06:10:51;;;;;;;1.80;0.70;;;25.80;41.20;;;;;;5012924;28;20200;-49
2023/02/09 06:13:22;;;;;;;2.10;0.80;;;25.80;41.20;;;;;;5013328;28;20205;-48
2023/02/09 06:15:52;;;;;;;1.75;0.60;;;25.80;41.20;;;;;;5013598;28;20207;-50
2023/02/09 06:18:23;;;;;;;1.98;0.90;;;25.80;41.20;;;;;;5013023;28;20669;-48
2023/02/09 06:20:55;;;;;;;2.03;1.33;;;25.70;41.10;;;;;;5013140;28;20193;-49
2023/02/09 06:23:28;;;;;;;4.65;1.83;;;25.80;41.20;;;;;;5013250;28;20224;-48
2023/02/09 06:25:59;;;;;;;4.93;2.45;;;25.70;41.20;;;;;;5013125;28;20284;-50
2023/02/09 06:28:30;;;;;;;6.13;2.50;;;25.70;41.20;;;;;;5009257;28;20619;-51
2023/02/09 06:31:00;;;;;;;6.03;2.28;;;25.70;41.20;;;;;;4993362;28;20217;-51
2023/02/09 06:33:31;;;;;;;4.97;2.17;;;25.70;41.20;;;;;;4994450;28;20214;-51
2023/02/09 06:36:02;;;;;;;4.18;2.10;;;25.70;41.20;;;;;;5006365;28;20272;-54
2023/02/09 06:38:37;;;;;;;4.28;2.00;;;25.60;41.10;;;;;;5008340;28;20221;-52
2023/02/09 06:41:08;;;;;;;3.47;1.55;;;25.60;41.20;;;;;;5010594;28;20660;-51
2023/02/09 06:43:38;;;;;;;4.00;1.85;;;25.60;41.20;;;;;;5009772;28;20704;-51
2023/02/09 06:46:10;;;;;;;4.10;1.60;;;25.60;41.20;;;;;;5012564;28;20204;-50
2023/02/09 06:48:41;;;;;;;4.80;1.60;;;25.50;41.20;;;;;;5012424;28;20221;-51
2023/02/09 06:51:12;;;;;;;2.95;1.45;;;25.50;41.20;;;;;;5006205;28;20193;-51
2023/02/09 06:53:45;;;;;;;4.15;1.30;;;25.50;41.20;;;;;;5009672;28;20196;-49
2023/02/09 06:56:16;;;;;;;3.13;1.50;;;25.50;41.20;;;;;;5002333;28;20201;-54
2023/02/09 06:58:47;;;;;;;4.38;1.52;;;25.50;41.20;;;;;;5003461;28;20690;-53
2023/02/09 07:01:18;;;;;;;1.55;1.02;;;25.50;41.30;;;;;;4992887;28;20216;-50
2023/02/09 07:03:49;;;;;;;4.35;1.50;;;25.50;41.30;;;;;;4992677;28;20720;-52
2023/02/09 07:06:21;;;;;;;3.97;1.73;;;25.50;41.30;;;;;;4992036;28;20198;-52
2023/02/09 07:08:54;;;;;;;3.13;1.17;;;25.50;41.30;;;;;;5009758;28;20225;-55
2023/02/09 07:11:24;;;;;;;4.07;1.60;;;25.40;41.20;;;;;;5012112;28;20649;-52
2023/02/09 07:13:55;;;;;;;2.92;1.48;;;25.50;41.30;;;;;;5012366;28;20203;-53
2023/02/09 07:16:26;;;;;;;3.10;1.60;;;25.40;41.20;;;;;;5012412;28;20671;-54
2023/02/09 07:18:57;;;;;;;3.08;1.30;;;25.40;41.30;;;;;;5012053;28;20228;-48
2023/02/09 07:21:27;;;;;;;3.08;1.08;;;25.40;41.40;;;;;;5012173;28;20675;-52
2023/02/09 07:24:00;;;;;;;3.70;1.48;;;25.30;41.30;;;;;;5011931;28;20235;-53
2023/02/09 07:26:30;;;;;;;2.90;1.20;;;25.30;41.90;;;;;;5011730;28;20228;-51
2023/02/09 07:29:02;;;;;;;2.67;1.05;;;25.30;41.30;;;;;;5011592;28;20232;-52
2023/02/09 07:31:33;;;;;;;3.55;1.13;;;25.30;41.30;;;;;;5012272;28;20201;-52
2023/02/09 07:34:04;;;;;;;3.10;1.10;;;25.30;41.30;;;;;;5012434;28;20677;-52
2023/02/09 07:36:34;;;;;;;3.13;1.27;;;25.30;41.30;;;;;;5011794;28;20208;-53
2023/02/09 07:39:07;;;;;;;3.10;1.00;;;25.20;41.30;;;;;;5011465;28;20220;-50
2023/02/09 07:41:38;;;;;;;2.50;0.82;;;25.20;41.30;;;;;;5011646;28;20189;-54
2023/02/09 07:44:09;;;;;;;3.30;1.13;;;25.20;41.30;;;;;;5011898;28;20238;-50
2023/02/09 07:46:40;;;;;;;2.78;1.15;;;25.20;41.30;;;;;;5011572;28;20200;-49
2023/02/09 07:49:10;;;;;;;2.38;1.17;;;25.20;41.30;;;;;;5011800;28;20217;-54
2023/02/09 07:51:41;;;;;;;2.53;1.00;;;25.10;41.30;;;;;;5011844;28;20574;-51
2023/02/09 07:54:16;;;;;;;2.38;0.93;;;25.20;41.40;;;;;;5011739;28;20227;-51
2023/02/09 07:56:46;;;;;;;3.33;0.90;;;25.10;41.40;;;;;;5011682;28;20193;-50
2023/02/09 07:59:17;;;;;;;2.53;0.95;;;25.10;41.40;;;;;;5011335;28;20613;-53
2023/02/09 08:01:48;;;;;;;3.10;1.20;;;25.10;41.40;;;;;;5011140;28;20197;-55
2023/02/09 08:04:19;;;;;;;3.25;1.02;;;25.10;41.40;;;;;;5011116;28;20254;-53
2023/02/09 08:06:49;;;;;;;2.25;0.98;;;25.10;41.40;;;;;;5011021;28;20193;-49
2023/02/09 08:09:22;;;;;;;4.03;1.08;;;25.00;41.30;;;;;;5011090;28;20229;-54
2023/02/09 08:11:56;;;;;;;2.80;1.00;;;25.00;41.40;;;;;;5011195;28;20201;-54
2023/02/09 08:14:31;;;;;;;2.67;0.70;;;25.00;41.40;;;;;;4995396;28;20524;-53
2023/02/09 08:17:24;;;;;;;1.40;0.93;;;25.00;41.40;;;;;;5015553;28;20207;-53
2023/02/09 08:19:58;;;;;;;2.92;1.00;;;24.90;41.40;;;;;;5015176;28;20307;-50
2023/02/09 08:22:33;;;;;;;2.10;0.70;;;24.90;41.40;;;;;;5015186;28;20192;-54
2023/02/09 08:25:06;;;;;;;1.73;1.13;;;24.90;41.40;;;;;;5015540;28;20245;-51
2023/02/09 08:27:38;;;;;;;1.98;0.90;;;24.90;41.50;;;;;;5014834;28;20209;-53
2023/02/09 08:30:10;;;;;;;2.10;1.00;;;24.90;41.50;;;;;;5014874;28;20224;-53
2023/02/09 08:32:41;;;;;;;1.80;0.60;;;24.90;41.50;;;;;;5014542;28;20201;-50
2023/02/09 08:35:12;;;;;;;1.77;0.73;;;24.80;41.50;;;;;;5015202;28;20196;-52
2023/02/09 08:37:42;;;;;;;2.20;0.82;;;24.80;41.50;;;;;;5014981;28;20209;-52
2023/02/09 08:40:15;;;;;;;1.10;0.70;;;24.80;41.60;;;;;;5015271;28;20244;-52
2023/02/09 08:42:46;;;;;;;2.05;0.90;;;24.80;42.30;;;;;;5015073;28;20679;-49
2023/02/09 08:45:17;;;;;;;1.80;0.80;;;24.80;41.70;;;;;;5015312;28;20231;-51
2023/02/09 08:47:47;;;;;;;1.88;0.68;;;24.70;41.70;;;;;;5015256;28;20201;-49
2023/02/09 08:50:18;;;;;;;2.88;0.98;;;24.70;41.70;;;;;;5014548;28;20216;-53
2023/02/09 08:52:49;;;;;;;1.25;0.70;;;24.70;41.80;;;;;;4999650;28;20197;-51
2023/02/09 08:55:22;;;;;;;2.78;0.80;;;24.70;41.80;;;;;;4995460;28;20201;-53
2023/02/09 08:57:52;;;;;;;1.80;0.70;;;24.70;41.80;;;;;;4995533;28;20204;-50
2023/02/09 09:00:23;;;;;;;2.40;1.10;;;24.60;41.70;;;;;;4995270;28;20345;-52
2023/02/09 09:02:54;;;;;;;1.83;0.80;;;24.70;41.80;;;;;;4995224;28;20204;-52
2023/02/09 09:05:25;;;;;;;2.20;0.70;;;24.60;41.80;;;;;;4994938;28;20233;-53
2023/02/09 09:07:55;;;;;;;2.45;1.00;;;24.60;41.90;;;;;;5005021;28;20204;-51
2023/02/09 09:10:28;;;;;;;1.38;0.80;;;24.60;41.90;;;;;;5014451;28;20224;-53
2023/02/09 09:12:59;;;;;;;1.23;0.90;;;24.60;42.00;;;;;;5014279;28;20197;-51
2023/02/09 09:15:30;;;;;;;1.08;0.50;;;24.60;42.00;;;;;;5014669;28;20447;-52
2023/02/09 09:18:00;;;;;;;1.98;0.70;;;24.50;42.00;;;;;;5014492;28;20687;-51
2023/02/09 09:20:31;;;;;;;2.17;0.98;;;24.50;42.00;;;;;;5014406;28;20224;-51
2023/02/09 09:23:02;;;;;;;2.25;0.75;;;24.50;42.00;;;;;;5014731;28;20200;-53
2023/02/09 09:25:34;;;;;;;1.90;0.93;;;24.50;42.00;;;;;;5014037;28;20225;-55
2023/02/09 09:28:05;;;;;;;2.25;0.77;;;24.40;42.00;;;;;;5014342;28;20402;-50
2023/02/09 09:30:36;;;;;;;1.70;0.80;;;24.40;42.10;;;;;;5014243;28;20732;-50
2023/02/09 09:33:07;;;;;;;1.70;0.70;;;24.40;42.10;;;;;;5014587;28;20197;-49
2023/02/09 09:35:37;;;;;;;2.45;0.82;;;24.40;42.10;;;;;;5014498;28;20203;-50
2023/02/09 09:38:08;;;;;;;1.08;0.40;;;24.40;42.10;;;;;;5014062;28;20213;-51
2023/02/09 09:40:42;;;;;;;1.48;0.60;;;24.40;42.20;;;;;;5011456;28;20197;-51
2023/02/09 09:43:22;;;;;;;3.58;0.90;;;24.40;42.20;;;;;;4993883;28;20606;-54
2023/02/09 09:45:53;;;;;;;2.10;0.82;;;24.40;42.30;;;;;;5009656;28;20228;-53
2023/02/09 09:48:30;;;;;;;2.78;0.70;;;24.30;42.20;;;;;;5013156;28;20541;-53
2023/02/09 09:51:12;;;;;;;1.27;0.70;;;24.30;42.20;;;;;;5013545;28;20204;-55
2023/02/09 09:53:45;;;;;;;1.40;0.80;;;24.30;42.90;;;;;;5013620;28;20657;-55
2023/02/09 09:56:19;;;;;;;1.17;0.63;;;24.30;42.30;;;;;;5013420;28;20565;-53
2023/02/09 09:58:52;;;;;;;2.40;0.70;;;24.30;42.30;;;;;;5013509;28;20212;-54
2023/02/09 10:01:23;;;;;;;0.88;0.63;;;24.30;42.40;;;;;;5013588;28;20243;-53
2023/02/09 10:03:54;;;;;;;1.48;0.73;;;24.20;42.30;;;;;;5013649;28;20197;-54
2023/02/09 10:06:25;;;;;;;1.90;0.70;;;24.20;42.40;;;;;;5013153;28;20228;-53
2023/02/09 10:09:00;;;;;;;1.20;0.70;;;24.20;42.40;;;;;;5013375;28;20224;-53
2023/02/09 10:11:39;;;;;;;1.50;0.70;;;24.20;42.50;;;;;;5013748;28;20560;-55
2023/02/09 10:14:12;;;;;;;2.13;0.70;;;24.20;42.50;;;;;;5013370;28;20650;-50
2023/02/09 10:16:44;;;;;;;0.90;0.63;;;24.20;42.50;;;;;;5013201;28;20211;-50
2023/02/09 10:19:24;;;;;;;2.00;1.00;;;24.10;42.40;;;;;;5013203;28;20716;-50
2023/02/09 10:21:55;;;;;;;1.48;0.60;;;24.20;42.50;;;;;;5012993;28;20192;-50
2023/02/09 10:24:27;;;;;;;1.70;0.80;;;24.20;42.50;;;;;;5013286;28;20613;-53
2023/02/09 10:27:16;;;;;;;0.38;0.35;;;24.10;42.50;;;;;;5013265;28;20517;-53
2023/02/09 10:29:47;;;;;;;1.40;0.60;;;24.10;43.10;;;;;;5012839;28;20224;-52
2023/02/09 10:32:20;;;;;;;1.02;0.43;;;24.10;42.50;;;;;;5012768;28;20207;-53
2023/02/09 10:34:52;;;;;;;1.23;0.60;;;24.10;42.60;;;;;;5013130;28;20205;-49
2023/02/09 10:37:28;;;;;;;0.63;0.38;;;24.10;42.60;;;;;;5011787;28;20239;-49
2023/02/09 10:40:07;;;;;;;1.65;0.50;;;24.00;42.60;;;;;;5012874;28;20231;-54
2023/02/09 10:42:42;;;;;;;1.33;0.70;;;24.00;42.60;;;;;;5013252;28;20287;-49
2023/02/09 10:45:22;;;;;;;1.42;0.57;;;24.00;42.70;;;;;;5012839;28;20220;-52
2023/02/09 10:48:01;;;;;;;1.17;0.52;;;24.00;42.70;;;;;;5013137;28;20208;-52
2023/02/09 10:50:32;;;;;;;1.05;0.65;;;24.00;42.70;;;;;;5011929;28;20223;-50
2023/02/09 10:53:04;;;;;;;1.48;0.60;;;24.00;42.70;;;;;;5009107;28;20680;-51
2023/02/09 10:55:38;;;;;;;1.17;0.63;;;23.90;42.70;;;;;;5013077;28;20668;-51
2023/02/09 10:58:27;;;;;;;0.90;0.60;;;23.90;42.70;;;;;;5012668;28;20558;-52
2023/02/09 11:01:07;;;;;;;0.93;0.60;;;23.90;42.80;;;;;;4995556;28;20237;-50
2023/02/09 11:03:47;;;;;;;0.47;0.38;;;23.90;42.70;;;;;;4993152;28;20193;-50
2023/02/09 11:06:19;;;;;;;0.60;0.32;;;23.90;42.80;;;;;;4992689;28;20221;-49
2023/02/09 11:08:53;;;;;;;2.58;0.82;;;23.90;42.80;;;;;;5009985;28;20603;-50
2023/02/09 11:11:33;;;;;;;2.00;0.68;;;23.90;42.80;;;;;;5012384;28;20197;-51
2023/02/09 11:14:11;;;;;;;1.27;0.50;;;23.80;42.80;;;;;;5012273;28;20220;-51
2023/02/09 11:16:56;;;;;;;0.98;0.60;;;23.80;42.90;;;;;;5012289;28;20556;-51
2023/02/09 11:19:50;;;;;;;0.50;0.50;;;23.80;42.90;;;;;;5012105;28;20220;-54
2023/02/09 11:22:26;;;;;;;0.85;0.60;;;23.80;42.90;;;;;;5012255;28;20220;-49
2023/02/09 11:25:06;;;;;;;0.98;0.52;;;23.80;42.90;;;;;;5012200;28;20231;-51
2023/02/09 11:27:49;;;;;;;1.13;0.60;;;23.80;42.90;;;;;;5012427;28;20227;-50
2023/02/09 11:30:45;;;;;;;0.80;0.50;;;23.80;42.90;;;;;;5012320;28;20221;-50
2023/02/09 11:33:23;;;;;;;1.52;0.70;;;23.70;42.90;;;;;;5012345;28;20204;-50
2023/02/09 11:36:05;;;;;;;0.77;0.52;;;23.70;42.90;;;;;;5012862;28;20573;-52
2023/02/09 11:38:43;;;;;;;0.80;0.50;;;23.70;42.90;;;;;;5012285;28;20220;-51
2023/02/09 11:44:06;;;;;;;1.15;0.60;;;23.70;43.00;;;;;;4959862;28;20604;-51
2023/02/09 11:46:41;;;;;;;0.98;0.50;;;23.70;43.00;;;;;;4992518;28;20233;-51
2023/02/09 11:49:18;;;;;;;1.67;0.60;;;23.70;43.00;;;;;;4992241;28;20217;-53
2023/02/09 11:51:52;;;;;;;1.27;0.65;;;23.70;43.00;;;;;;5005857;28;20192;-51
2023/02/09 11:54:27;;;;;;;0.70;0.50;;;23.60;43.00;;;;;;5012034;28;20204;-50
2023/02/09 11:57:04;;;;;;;1.08;0.55;;;23.60;43.00;;;;;;5012020;28;20684;-52
2023/02/09 11:59:39;;;;;;;1.30;0.60;;;23.60;43.00;;;;;;5011505;28;20224;-53
2023/02/09 12:02:24;;;;;;;0.75;0.47;;;23.60;43.00;;;;;;5011425;28;20197;-50
2023/02/09 12:05:00;;;;;;;1.00;0.60;;;23.60;43.10;;;;;;5011734;28;20204;-52
2023/02/09 12:07:36;;;;;;;0.47;0.40;;;23.60;43.10;;;;;;5011708;28;20207;-51
2023/02/09 12:10:19;;;;;;;1.42;0.70;;;23.60;43.10;;;;;;5011520;28;20220;-49
2023/02/09 12:12:56;;;;;;;1.27;0.60;;;23.60;43.10;;;;;;5011311;28;20660;-52
2023/02/09 12:15:30;;;;;;;1.38;0.60;;;23.50;43.00;;;;;;5011646;28;20196;-50
2023/02/09 12:18:07;;;;;;;1.23;0.50;;;23.60;43.80;;;;;;5011894;28;20193;-52
2023/02/09 12:20:52;;;;;;;0.98;0.50;;;23.50;43.10;;;;;;5011744;28;20220;-50
2023/02/09 12:23:32;;;;;;;1.05;0.52;;;23.50;43.10;;;;;;5011840;28;20193;-49
2023/02/09 12:26:04;;;;;;;0.93;0.63;;;23.50;43.20;;;;;;5011577;28;20232;-50
2023/02/09 12:28:43;;;;;;;1.80;0.60;;;23.50;43.20;;;;;;5011504;28;20220;-51
2023/02/09 12:31:17;;;;;;;1.70;0.82;;;23.50;43.20;;;;;;5011419;28;20193;-51
2023/02/09 12:34:22;;;;;;;0.95;0.50;;;23.50;43.20;;;;;;5011709;28;20197;-51
2023/02/09 12:37:30;;;;;;;1.25;0.60;;;23.40;43.20;;;;;;5011148;28;20201;-51
2023/02/09 12:40:36;;;;;;;1.00;0.65;;;23.40;43.20;;;;;;5008842;28;20225;-56
2023/02/09 12:43:28;;;;;;;1.15;0.57;;;23.40;43.30;;;;;;5010961;28;20197;-51
2023/02/09 12:46:25;;;;;;;1.35;0.50;;;23.40;43.20;;;;;;5008503;28;20236;-51
2023/02/09 12:49:10;;;;;;;1.15;0.50;;;23.40;43.30;;;;;;4998698;28;20217;-50
2023/02/09 12:51:51;;;;;;;0.95;0.43;;;23.40;43.30;;;;;;5011147;28;20203;-52
2023/02/09 12:54:51;;;;;;;1.27;0.60;;;23.40;43.30;;;;;;5011205;28;20606;-51
2023/02/09 12:57:56;;;;;;;0.80;0.45;;;23.40;43.30;;;;;;4993837;28;20563;-51
2023/02/09 13:00:56;;;;;;;1.13;0.47;;;23.30;43.30;;;;;;4992715;28;20228;-50
2023/02/09 13:03:28;;;;;;;1.33;0.55;;;23.30;43.30;;;;;;4995343;28;20201;-53
2023/02/09 13:06:07;;;;;;;0.80;0.50;;;23.30;43.30;;;;;;4995108;28;20323;-51
2023/02/09 13:08:47;;;;;;;1.17;0.45;;;23.30;43.30;;;;;;5010597;28;20590;-53
2023/02/09 13:11:30;;;;;;;0.73;0.43;;;23.30;43.40;;;;;;5014946;28;20279;-52
2023/02/09 13:14:06;;;;;;;1.10;0.50;;;23.30;43.40;;;;;;5014707;28;20224;-50
2023/02/09 13:16:51;;;;;;;0.90;0.55;;;23.30;43.40;;;;;;5014441;28;20207;-53
2023/02/09 13:19:54;;;;;;;0.98;0.50;;;23.30;43.40;;;;;;5014307;28;20271;-51
2023/02/09 13:22:44;;;;;;;0.52;0.40;;;23.20;43.30;;;;;;5008683;28;20200;-50
2023/02/09 13:25:21;;;;;;;0.65;0.45;;;23.30;43.40;;;;;;5014146;28;20570;-50
2023/02/09 13:27:52;;;;;;;0.90;0.50;;;23.20;43.40;;;;;;5014002;28;20205;-50
2023/02/09 13:30:36;;;;;;;0.75;0.40;;;23.20;43.30;;;;;;5014083;28;20216;-50
2023/02/09 13:33:16;;;;;;;2.00;0.70;;;23.20;43.40;;;;;;5014426;28;20284;-52
2023/02/09 13:36:03;;;;;;;1.70;0.50;;;23.20;43.40;;;;;;5014067;28;20193;-48
2023/02/09 13:38:36;;;;;;;1.02;0.40;;;23.20;43.40;;;;;;5013893;28;20232;-52